Schneifelwetter: Wetterstation Hallschlag, 537 m . NN
Wetterdaten: Montag, 03.08.2009
Datum Zeit Temp. A. Feuchte A. Luftdruck Regen Wind Richtung Richtung Sonnenschein Helligkeit T Regen Taupunkt Windchill
03.08.2009 00:00 12,4 C 90 % 1015 hPa 0,0 l/m 0,0 km/h (0 Bft) W 260 0 min 0 lux 0,00 min 10,8 C 12,4 C
03.08.2009 00:15 12,4 C 90 % 1015 hPa 0,0 l/m 0,0 km/h (0 Bft) W 260 0 min 0 lux 0,00 min 10,8 C 12,4 C
03.08.2009 00:30 12,4 C 90 % 1015 hPa 0,0 l/m 0,0 km/h (0 Bft) W 260 0 min 0 lux 0,00 min 10,8 C 12,4 C
03.08.2009 00:45 12,4 C 90 % 1015 hPa 0,0 l/m 0,0 km/h (0 Bft) W 260 0 min 0 lux 0,00 min 10,8 C 12,4 C
03.08.2009 01:00 12,4 C 91 % 1015 hPa 0,0 l/m 0,0 km/h (0 Bft) W 260 0 min 0 lux 0,00 min 11,0 C 12,4 C
03.08.2009 01:15 12,4 C 91 % 1015 hPa 0,0 l/m 0,0 km/h (0 Bft) W 260 0 min 0 lux 0,00 min 11,0 C 12,4 C
03.08.2009 01:30 12,4 C 91 % 1015 hPa 0,0 l/m 0,0 km/h (0 Bft) W 260 0 min 0 lux 0,00 min 11,0 C 12,4 C
03.08.2009 01:45 12,3 C 91 % 1015 hPa 0,0 l/m 0,0 km/h (0 Bft) W 260 0 min 0 lux 0,00 min 10,9 C 12,3 C
03.08.2009 02:00 12,3 C 92 % 1015 hPa 0,0 l/m 0,0 km/h (0 Bft) W 260 0 min 0 lux 0,00 min 11,0 C 12,3 C
03.08.2009 02:15 12,2 C 92 % 1015 hPa 0,0 l/m 4,7 km/h (1 Bft) W 260 0 min 0 lux 0,00 min 10,9 C 12,2 C
03.08.2009 02:30 12,2 C 92 % 1015 hPa 0,0 l/m 0,0 km/h (0 Bft) W 260 0 min 0 lux 0,00 min 10,9 C 12,2 C
03.08.2009 02:45 12,3 C 92 % 1015 hPa 0,0 l/m 0,0 km/h (0 Bft) W 260 0 min 0 lux 0,00 min 11,0 C 12,3 C
03.08.2009 03:00 12,3 C 92 % 1015 hPa 0,0 l/m 0,0 km/h (0 Bft) W 260 0 min 0 lux 0,00 min 11,0 C 12,3 C
03.08.2009 03:15 12,4 C 93 % 1015 hPa 0,0 l/m 0,0 km/h (0 Bft) W 260 0 min 0 lux 0,00 min 11,3 C 12,4 C
03.08.2009 03:30 12,4 C 93 % 1015 hPa 0,0 l/m 0,0 km/h (0 Bft) W 260 0 min 0 lux 0,00 min 11,3 C 12,4 C
03.08.2009 03:45 12,4 C 93 % 1015 hPa 0,0 l/m 7,8 km/h (2 Bft) W 260 0 min 0 lux 0,00 min 11,3 C 11,5 C
03.08.2009 04:00 12,3 C 92 % 1015 hPa 0,0 l/m 0,0 km/h (0 Bft) W 260 0 min 0 lux 0,00 min 11,0 C 12,3 C
03.08.2009 04:15 12,2 C 92 % 1015 hPa 0,0 l/m 0,0 km/h (0 Bft) W 260 0 min 0 lux 0,00 min 10,9 C 12,2 C
03.08.2009 04:30 12,0 C 92 % 1015 hPa 0,0 l/m 0,0 km/h (0 Bft) W 260 0 min 0 lux 0,00 min 10,7 C 12,0 C
03.08.2009 04:45 11,8 C 92 % 1015 hPa 0,0 l/m 0,0 km/h (0 Bft) W 260 0 min 0 lux 0,00 min 10,5 C 11,8 C
03.08.2009 05:00 11,5 C 94 % 1015 hPa 0,0 l/m 0,7 km/h (0 Bft) W 260 0 min 0 lux 0,00 min 10,6 C 11,5 C
03.08.2009 05:15 11,4 C 93 % 1015 hPa 0,0 l/m 0,0 km/h (0 Bft) W 260 0 min 0 lux 0,00 min 10,3 C 11,4 C
03.08.2009 05:30 11,4 C 94 % 1015 hPa 0,0 l/m 0,0 km/h (0 Bft) W 260 0 min 0 lux 0,00 min 10,5 C 11,4 C
03.08.2009 05:45 11,6 C 94 % 1015 hPa 0,0 l/m 0,0 km/h (0 Bft) W 260 0 min 0 lux 0,00 min 10,7 C 11,6 C
03.08.2009 06:00 11,6 C 94 % 1015 hPa 0,0 l/m 0,0 km/h (0 Bft) W 260 0 min 128 lux 0,00 min 10,7 C 11,6 C
03.08.2009 06:15 11,5 C 94 % 1015 hPa 0,0 l/m 0,0 km/h (0 Bft) W 260 0 min 338 lux 0,00 min 10,6 C 11,5 C
03.08.2009 06:30 11,6 C 94 % 1015 hPa 0,0 l/m 0,0 km/h (0 Bft) W 260 0 min 581 lux 0,00 min 10,7 C 11,6 C
03.08.2009 06:45 11,5 C 94 % 1015 hPa 0,0 l/m 0,0 km/h (0 Bft) W 260 0 min 1,06 klux 0,00 min 10,6 C 11,5 C
03.08.2009 07:00 11,4 C 94 % 1015 hPa 0,0 l/m 0,0 km/h (0 Bft) W 260 0 min 2,26 klux 0,00 min 10,5 C 11,4 C
03.08.2009 07:15 11,6 C 94 % 1016 hPa 0,0 l/m 0,0 km/h (0 Bft) W 260 0 min 2,48 klux 0,00 min 10,7 C 11,6 C
03.08.2009 07:30 11,7 C 94 % 1016 hPa 0,0 l/m 0,0 km/h (0 Bft) W 260 0 min 4,54 klux 0,00 min 10,8 C 11,7 C
03.08.2009 07:45 11,8 C 94 % 1016 hPa 0,0 l/m 0,0 km/h (0 Bft) W 260 0 min 6,18 klux 0,00 min 10,9 C 11,8 C
03.08.2009 08:00 12,2 C 94 % 1015 hPa 0,0 l/m 0,0 km/h (0 Bft) W 260 0 min 7,92 klux 0,00 min 11,3 C 12,2 C
03.08.2009 08:15 12,4 C 94 % 1015 hPa 0,0 l/m 0,0 km/h (0 Bft) W 260 0 min 8,91 klux 0,00 min 11,5 C 12,4 C
03.08.2009 08:30 12,7 C 94 % 1015 hPa 0,0 l/m 0,0 km/h (0 Bft) W 260 0 min 20,6 klux 0,00 min 11,8 C 12,7 C
03.08.2009 08:45 13,7 C 93 % 1015 hPa 0,0 l/m 0,0 km/h (0 Bft) W 260 15 min 46,8 klux 0,00 min 12,6 C 13,7 C
03.08.2009 09:00 14,5 C 91 % 1016 hPa 0,0 l/m 0,0 km/h (0 Bft) W 260 0 min 32,6 klux 0,00 min 13,0 C 14,5 C
03.08.2009 09:15 15,0 C 89 % 1016 hPa 0,0 l/m 0,0 km/h (0 Bft) W 260 0 min 21,4 klux 0,00 min 13,2 C 15,0 C
03.08.2009 09:30 15,2 C 87 % 1016 hPa 0,0 l/m 4,0 km/h (1 Bft) W 260 0 min 21,0 klux 0,00 min 13,0 C 15,2 C
03.08.2009 09:45 15,3 C 85 % 1016 hPa 0,0 l/m 0,3 km/h (0 Bft) W 260 0 min 20,5 klux 0,00 min 12,8 C 15,3 C
03.08.2009 10:00 15,4 C 84 % 1016 hPa 0,0 l/m 4,8 km/h (1 Bft) W 260 0 min 21,9 klux 0,00 min 12,7 C 15,4 C
03.08.2009 10:15 15,6 C 82 % 1016 hPa 0,0 l/m 4,3 km/h (1 Bft) W 260 0 min 31,8 klux 0,00 min 12,5 C 15,6 C
03.08.2009 10:30 16,4 C 78 % 1016 hPa 0,0 l/m 3,4 km/h (1 Bft) W 260 0 min 34,0 klux 0,00 min 12,6 C 16,4 C
03.08.2009 10:45 16,8 C 76 % 1016 hPa 0,0 l/m 6,3 km/h (2 Bft) W 260 0 min 34,7 klux 0,00 min 12,5 C 16,8 C
03.08.2009 11:00 17,3 C 74 % 1016 hPa 0,0 l/m 6,3 km/h (2 Bft) W 260 0 min 37,5 klux 0,00 min 12,6 C 17,3 C
03.08.2009 11:15 18,1 C 73 % 1016 hPa 0,0 l/m 6,5 km/h (2 Bft) W 260 15 min 67,5 klux 0,00 min 13,2 C 18,1 C
03.08.2009 11:30 19,0 C 70 % 1016 hPa 0,0 l/m 9,8 km/h (2 Bft) W 260 15 min 96,4 klux 0,00 min 13,4 C 17,6 C
03.08.2009 11:45 19,1 C 67 % 1016 hPa 0,0 l/m 7,8 km/h (2 Bft) W 260 15 min 67,8 klux 0,00 min 12,8 C 18,5 C
03.08.2009 12:00 20,2 C 64 % 1016 hPa 0,0 l/m 11,3 km/h (2 Bft) W 260 15 min 94,5 klux 0,00 min 13,2 C 18,5 C
03.08.2009 12:15 20,4 C 62 % 1016 hPa 0,0 l/m 8,7 km/h (2 Bft) W 260 15 min 73,0 klux 0,00 min 12,9 C 19,5 C
03.08.2009 12:30 19,6 C 61 % 1016 hPa 0,0 l/m 13,0 km/h (3 Bft) W45 280 15 min 60,4 klux 0,00 min 11,9 C 17,3 C
03.08.2009 12:45 19,0 C 64 % 1016 hPa 0,3 l/m 12,4 km/h (3 Bft) W 265 15 min 57,4 klux 15,00 min 12,0 C 16,8 C
03.08.2009 13:00 19,2 C 59 % 1016 hPa 0,0 l/m 8,6 km/h (2 Bft) W 265 15 min 67,1 klux 0,00 min 11,0 C 18,3 C
03.08.2009 13:15 19,3 C 60 % 1016 hPa 0,0 l/m 7,4 km/h (2 Bft) W-SW 245 15 min 63,6 klux 0,00 min 11,3 C 18,9 C
03.08.2009 13:30 18,9 C 60 % 1016 hPa 0,0 l/m 12,2 km/h (2 Bft) W-SW22.5 250 15 min 48,1 klux 0,00 min 11,0 C 16,7 C
03.08.2009 13:45 17,4 C 62 % 1016 hPa 0,0 l/m 16,1 km/h (3 Bft) W22.5 270 0 min 17,4 klux 0,00 min 10,0 C 13,8 C
03.08.2009 14:00 15,8 C 67 % 1016 hPa 0,0 l/m 17,2 km/h (3 Bft) W22.5 270 0 min 7,15 klux 0,00 min 9,7 C 11,5 C
03.08.2009 14:15 14,8 C 70 % 1016 hPa 0,0 l/m 22,0 km/h (4 Bft) W22.5 265 0 min 8,06 klux 0,00 min 9,4 C 9,0 C
03.08.2009 14:30 14,3 C 72 % 1017 hPa 0,0 l/m 11,0 km/h (2 Bft) W22.5 270 0 min 7,93 klux 0,00 min 9,3 C 11,9 C
03.08.2009 14:45 14,2 C 74 % 1017 hPa 0,0 l/m 7,8 km/h (2 Bft) W-SW 250 0 min 9,9 klux 0,00 min 9,6 C 13,4 C
03.08.2009 15:00 14,4 C 75 % 1017 hPa 0,0 l/m 7,3 km/h (2 Bft) W-SW 240 0 min 16,3 klux 0,00 min 10,0 C 13,9 C
03.08.2009 15:15 14,8 C 76 % 1017 hPa 0,0 l/m 8,3 km/h (2 Bft) W22.5 265 0 min 17,3 klux 0,00 min 10,6 C 13,7 C
03.08.2009 15:30 15,1 C 75 % 1017 hPa 0,0 l/m 9,1 km/h (2 Bft) W 260 0 min 20,7 klux 0,00 min 10,7 C 13,6 C
03.08.2009 15:45 15,5 C 74 % 1017 hPa 0,0 l/m 6,2 km/h (2 Bft) W 260 0 min 22,0 klux 0,00 min 10,9 C 15,5 C
03.08.2009 16:00 16,0 C 73 % 1017 hPa 0,0 l/m 7,8 km/h (2 Bft) W 260 0 min 21,9 klux 0,00 min 11,2 C 15,3 C
03.08.2009 16:15 16,1 C 72 % 1017 hPa 0,0 l/m 6,9 km/h (2 Bft) W-NW22.5 285 0 min 28,0 klux 0,00 min 11,0 C 15,8 C
03.08.2009 16:30 16,6 C 70 % 1017 hPa 0,0 l/m 10,3 km/h (2 Bft) NW45 310 0 min 35,9 klux 0,00 min 11,1 C 14,8 C
03.08.2009 16:45 17,0 C 68 % 1017 hPa 0,0 l/m 12,6 km/h (3 Bft) W22.5 275 0 min 37,0 klux 0,00 min 11,0 C 14,4 C
03.08.2009 17:00 17,7 C 68 % 1017 hPa 0,0 l/m 8,0 km/h (2 Bft) NW45 320 15 min 61,5 klux 0,00 min 11,7 C 16,9 C
03.08.2009 17:15 18,2 C 64 % 1016 hPa 0,0 l/m 10,0 km/h (2 Bft) W 265 15 min 69,5 klux 0,00 min 11,3 C 16,7 C
03.08.2009 17:30 18,4 C 62 % 1016 hPa 0,0 l/m 11,5 km/h (2 Bft) W 260 15 min 66,3 klux 0,00 min 11,0 C 16,4 C
03.08.2009 17:45 18,2 C 63 % 1017 hPa 0,0 l/m 11,4 km/h (2 Bft) W22.5 265 15 min 57,5 klux 0,00 min 11,0 C 16,2 C
03.08.2009 18:00 18,2 C 61 % 1016 hPa 0,0 l/m 22,0 km/h (4 Bft) W-NW45 290 15 min 53,9 klux 0,00 min 10,6 C 13,5 C
03.08.2009 18:15 18,0 C 61 % 1016 hPa 0,0 l/m 10,5 km/h (2 Bft) W 265 15 min 54,1 klux 0,00 min 10,4 C 16,2 C
03.08.2009 18:30 18,1 C 61 % 1016 hPa 0,0 l/m 7,9 km/h (2 Bft) NO22.5 40 15 min 53,3 klux 0,00 min 10,5 C 17,4 C
03.08.2009 18:46 18,6 C 59 % 1016 hPa 0,0 l/m 14,3 km/h (3 Bft) NW67.5 305 16 min 50,5 klux 0,00 min 10,4 C 15,7 C
03.08.2009 19:00 17,7 C 60 % 1016 hPa 0,0 l/m 19,7 km/h (3 Bft) N67.5 350 0 min 20,2 klux 0,00 min 9,8 C 13,3 C
03.08.2009 19:15 17,0 C 62 % 1016 hPa 0,0 l/m 12,4 km/h (3 Bft) N22.5 10 0 min 12,8 klux 0,00 min 9,7 C 14,4 C
03.08.2009 19:30 16,4 C 65 % 1016 hPa 0,0 l/m 8,3 km/h (2 Bft) N-NO 20 0 min 25,4 klux 0,00 min 9,8 C 15,4 C
03.08.2009 19:45 16,9 C 65 % 1017 hPa 0,0 l/m 5,1 km/h (1 Bft) N-NO 15 0 min 25,6 klux 0,00 min 10,3 C 16,9 C
03.08.2009 20:00 16,7 C 65 % 1017 hPa 0,0 l/m 4,3 km/h (1 Bft) N-NO 30 0 min 18,8 klux 0,00 min 10,1 C 16,7 C
03.08.2009 20:15 15,9 C 66 % 1017 hPa 0,0 l/m 4,0 km/h (1 Bft) N-NO 30 0 min 12,1 klux 0,00 min 9,6 C 15,9 C
03.08.2009 20:30 15,2 C 67 % 1017 hPa 0,0 l/m 0,0 km/h (0 Bft) N-NO 30 0 min 10,5 klux 0,00 min 9,1 C 15,2 C
03.08.2009 20:45 14,8 C 69 % 1017 hPa 0,0 l/m 0,0 km/h (0 Bft) N-NO 30 0 min 6,21 klux 0,00 min 9,2 C 14,8 C
03.08.2009 21:00 14,0 C 71 % 1017 hPa 0,0 l/m 0,0 km/h (0 Bft) N-NO 30 0 min 2,66 klux 0,00 min 8,8 C 14,0 C
03.08.2009 21:15 13,2 C 73 % 1017 hPa 0,0 l/m 0,0 km/h (0 Bft) N-NO 30 0 min 1,59 klux 0,00 min 8,5 C 13,2 C
03.08.2009 21:30 12,2 C 75 % 1017 hPa 0,0 l/m 0,0 km/h (0 Bft) N-NO 30 0 min 486 lux 0,00 min 7,9 C 12,2 C
03.08.2009 21:45 11,6 C 77 % 1017 hPa 0,0 l/m 0,0 km/h (0 Bft) N-NO 30 0 min 88 lux 0,00 min 7,7 C 11,6 C
03.08.2009 22:00 10,9 C 78 % 1018 hPa 0,0 l/m 0,0 km/h (0 Bft) N-NO 30 0 min 10 lux 0,00 min 7,2 C 10,9 C
03.08.2009 22:15 10,3 C 80 % 1018 hPa 0,0 l/m 0,0 km/h (0 Bft) N-NO 30 0 min 0 lux 0,00 min 7,0 C 10,3 C
03.08.2009 22:30 9,8 C 81 % 1018 hPa 0,0 l/m 0,0 km/h (0 Bft) N-NO 30 0 min 0 lux 0,00 min 6,7 C 9,8 C
03.08.2009 22:45 9,3 C 82 % 1018 hPa 0,0 l/m 0,0 km/h (0 Bft) N-NO 30 0 min 0 lux 0,00 min 6,4 C 9,3 C
03.08.2009 23:00 9,0 C 85 % 1018 hPa 0,0 l/m 0,0 km/h (0 Bft) N-NO 30 0 min 0 lux 0,00 min 6,6 C 9,0 C
03.08.2009 23:15 8,8 C 85 % 1019 hPa 0,0 l/m 0,0 km/h (0 Bft) N-NO 30 0 min 0 lux 0,00 min 6,4 C 8,8 C
03.08.2009 23:30 8,4 C 85 % 1019 hPa 0,0 l/m 0,0 km/h (0 Bft) N-NO 30 0 min 0 lux 0,00 min 6,0 C 8,4 C
03.08.2009 23:45 8,0 C 85 % 1019 hPa 0,0 l/m 0,0 km/h (0 Bft) N-NO 30 0 min 0 lux 0,00 min 5,6 C 8,0 C
03.08.2009 23:54 7,6 C 86 % 1019 hPa 0,0 l/m 0,0 km/h (0 Bft) N-NO 30 0 min 0 lux 0,00 min 5,4 C 7,6 C
_ Min-Zeit 23:54 13:00 00:00 - 00:00 - - - - - 23:54 23:54
Minimum _ 7,6 C 59 % 1015 hPa - 0,0 km/h (0 Bft) - - - - - 5,4 C 7,6 C
_ Max-Zeit 12:15 05:00 23:15 12:45 14:15 - - 18:46 11:30 12:45 11:30 12:15
Maximum _ 20,4 C 94 % 1019 hPa 0,3 l/m 22,0 km/h
W (4 Bft)
- - 16 min 96,4 klux 15,00 min 13,4 C 19,5 C
Durchschnitt _ 14,2 C 79 % 1016 hPa #0,3 l/m 4,5 km/h (1 Bft) W - #4:46 h 19,6 klux #15 min. 10,5 C 13,6 C